Time;durP1;ratioP1;P1;durP2;ratioP2;P2;SDS_P1;SDS_P2;PMS_P1;PMS_P2;Temp;Humidity;BMP_temperature;BMP_pressure;BME280_temperature;BME280_humidity;BME280_pressure;Samples;Min_cycle;Max_cycle;Signal;HPM_P1;HPM_P2
2024/01/08 00:01:32;;;;;;;10.93;4.28;;;;;;;11.11;100.00;96543.16;5010086;28;20570;-57
2024/01/08 00:03:57;;;;;;;9.40;4.60;;;;;;;10.89;100.00;96508.25;5010116;28;20187;-57
2024/01/08 00:06:23;;;;;;;10.68;4.43;;;;;;;10.91;100.00;96526.22;5009985;28;20600;-57
2024/01/08 00:08:49;;;;;;;9.57;4.05;;;;;;;10.88;100.00;96513.59;5009918;28;20187;-57
2024/01/08 00:11:14;;;;;;;13.40;4.25;;;;;;;11.09;100.00;96558.03;5009808;28;20217;-57
2024/01/08 00:13:40;;;;;;;12.85;4.25;;;;;;;10.80;100.00;96526.47;5009928;28;20278;-57
2024/01/08 00:16:05;;;;;;;8.77;3.78;;;;;;;11.03;100.00;96556.06;5009653;28;20274;-57
2024/01/08 00:18:31;;;;;;;13.65;4.40;;;;;;;10.84;100.00;96527.78;5009693;28;20293;-57
2024/01/08 00:20:59;;;;;;;8.05;3.50;;;;;;;10.74;100.00;96521.91;5009780;28;20218;-57
2024/01/08 00:23:24;;;;;;;8.65;4.32;;;;;;;11.07;100.00;96571.13;5009715;28;20201;-57
2024/01/08 00:25:49;;;;;;;8.68;4.07;;;;;;;11.34;100.00;96614.13;5009740;28;20191;-57
2024/01/08 00:28:15;;;;;;;7.30;3.33;;;;;;;11.32;100.00;96618.66;5011575;28;20183;-57
2024/01/08 00:30:40;;;;;;;6.70;3.35;;;;;;;10.78;100.00;96533.56;5046698;28;20640;-57
2024/01/08 00:33:06;;;;;;;11.90;3.63;;;;;;;10.96;100.00;96562.78;5049227;28;20185;-57
2024/01/08 00:35:31;;;;;;;8.95;3.35;;;;;;;10.85;100.00;96547.53;5049428;28;20196;-57
2024/01/08 00:37:57;;;;;;;8.18;3.70;;;;;;;11.02;100.00;96573.34;5049399;28;20185;-57
2024/01/08 00:40:22;;;;;;;7.68;3.35;;;;;;;10.80;100.00;96549.75;5049154;28;20182;-57
2024/01/08 00:42:48;;;;;;;9.02;3.47;;;;;;;11.23;100.00;96627.34;5049122;28;20198;-57
2024/01/08 00:45:14;;;;;;;8.27;3.60;;;;;;;11.03;100.00;96595.66;5049153;28;20177;-57
2024/01/08 00:47:40;;;;;;;8.00;3.75;;;;;;;10.95;100.00;96581.84;5065608;28;20289;-57
2024/01/08 00:50:06;;;;;;;7.95;3.60;;;;;;;11.03;100.00;96594.88;5071132;28;20196;-57
2024/01/08 00:52:32;;;;;;;6.88;3.50;;;;;;;10.77;100.00;96555.22;5071499;28;20296;-56
2024/01/08 00:55:03;;;;;;;5.38;3.15;;;;;;;10.88;100.00;96568.72;5071202;28;20647;-56
2024/01/08 00:57:29;;;;;;;3.78;3.13;;;;;;;11.16;100.00;96631.50;5071398;28;20181;-57
2024/01/08 00:59:55;;;;;;;8.43;3.28;;;;;;;10.70;100.00;96561.97;5071410;28;20629;-57
2024/01/08 01:02:20;;;;;;;7.78;2.65;;;;;;;10.87;100.00;96599.91;5071310;28;20234;-57
2024/01/08 01:04:45;;;;;;;8.40;3.50;;;;;;;11.08;100.00;96628.88;5071323;28;20283;-57
2024/01/08 01:07:11;;;;;;;4.35;2.60;;;;;;;11.21;100.00;96649.97;5071247;28;20569;-57
2024/01/08 01:09:37;;;;;;;6.38;2.95;;;;;;;10.24;100.00;96500.19;4995730;28;20731;-57
2024/01/08 01:12:04;;;;;;;6.18;2.53;;;;;;;11.15;100.00;96651.38;5031462;28;20191;-56
2024/01/08 01:14:29;;;;;;;7.53;3.13;;;;;;;10.59;100.00;96559.63;5032971;28;20619;-57
2024/01/08 01:16:55;;;;;;;5.70;2.78;;;;;;;10.61;100.00;96563.69;5033059;28;20337;-57
2024/01/08 01:19:20;;;;;;;4.38;2.38;;;;;;;10.92;100.00;96615.81;5032749;28;20221;-56
2024/01/08 01:21:45;;;;;;;6.22;2.35;;;;;;;10.71;100.00;96581.69;5032953;28;20188;-57
2024/01/08 01:24:11;;;;;;;10.20;3.13;;;;;;;11.09;100.00;96651.19;5032725;28;20190;-57
2024/01/08 01:26:36;;;;;;;7.78;2.60;;;;;;;10.75;100.00;96601.91;5032831;28;20186;-57
2024/01/08 01:29:02;;;;;;;5.47;2.50;;;;;;;10.61;100.00;96583.53;5032902;28;20189;-57
2024/01/08 01:31:27;;;;;;;10.20;3.08;;;;;;;10.63;100.00;96581.63;5032719;28;20190;-57
2024/01/08 01:33:53;;;;;;;8.07;3.08;;;;;;;11.09;100.00;96656.38;5032662;28;20607;-57
2024/01/08 01:36:18;;;;;;;6.30;3.63;;;;;;;10.84;100.00;96621.72;5032561;28;20280;-57
2024/01/08 01:38:43;;;;;;;9.90;4.50;;;;;;;10.99;100.00;96645.28;5032569;28;20332;-57
2024/01/08 01:41:10;;;;;;;6.50;4.15;;;;;;;10.97;100.00;96665.34;5063088;28;20200;-57
2024/01/08 01:43:35;;;;;;;6.72;3.55;;;;;;;10.99;100.00;96676.34;5074692;28;20181;-56
2024/01/08 01:46:04;;;;;;;4.80;3.20;;;;;;;11.02;100.00;96658.72;5074721;28;20234;-57
2024/01/08 01:48:30;;;;;;;8.98;3.47;;;;;;;10.69;100.00;96612.88;5074663;28;20203;-57
2024/01/08 01:50:56;;;;;;;6.35;3.47;;;;;;;10.82;100.00;96649.53;5074560;28;20659;-57
2024/01/08 01:53:23;;;;;;;7.15;3.08;;;;;;;10.71;100.00;96617.91;5074190;28;20655;-57
2024/01/08 01:55:49;;;;;;;10.85;3.03;;;;;;;10.72;100.00;96619.50;5074521;28;20267;-57
2024/01/08 01:58:15;;;;;;;5.40;3.25;;;;;;;10.48;100.00;96577.94;5074418;28;20594;-57
2024/01/08 02:00:41;;;;;;;3.90;2.22;;;;;;;10.85;100.00;96630.31;5012177;28;20195;-56
2024/01/08 02:03:08;;;;;;;3.40;2.47;;;;;;;10.97;100.00;96663.53;5012316;28;20206;-57
2024/01/08 02:05:34;;;;;;;3.20;2.47;;;;;;;10.80;100.00;96637.72;5012178;28;20198;-57
2024/01/08 02:08:00;;;;;;;3.33;2.28;;;;;;;10.63;100.00;96610.09;5012183;28;20187;-57
2024/01/08 02:10:26;;;;;;;5.32;2.50;;;;;;;10.51;100.00;96603.50;5012035;28;20301;-57
2024/01/08 02:12:52;;;;;;;2.85;2.05;;;;;;;10.39;100.00;96587.41;5012182;28;20222;-57
2024/01/08 02:15:17;;;;;;;3.58;2.58;;;;;;;10.70;100.00;96655.06;5012076;28;20191;-57
2024/01/08 02:17:43;;;;;;;4.47;2.50;;;;;;;10.76;100.00;96654.47;5017706;28;20198;-57
2024/01/08 02:20:09;;;;;;;4.10;2.10;;;;;;;10.75;100.00;96652.84;5031695;28;20190;-57
2024/01/08 02:22:41;;;;;;;5.40;2.83;;;;;;;10.83;100.00;96660.69;5031513;28;20749;-57
2024/01/08 02:25:08;;;;;;;4.43;1.98;;;;;;;10.69;100.00;96637.94;5031700;28;20186;-57
2024/01/08 02:27:34;;;;;;;3.38;1.95;;;;;;;10.55;100.00;96607.41;5031679;28;20657;-57
2024/01/08 02:29:59;;;;;;;2.72;1.70;;;;;;;10.33;100.00;96566.53;5031587;28;20225;-57
2024/01/08 02:32:24;;;;;;;2.35;2.13;;;;;;;10.96;100.00;96672.28;5065597;28;20656;-57
2024/01/08 02:34:50;;;;;;;2.83;2.35;;;;;;;10.53;100.00;96612.75;5073604;28;20165;-57
2024/01/08 02:37:15;;;;;;;4.72;2.47;;;;;;;10.41;100.00;96587.25;5074092;28;20181;-57
2024/01/08 02:39:40;;;;;;;4.68;2.35;;;;;;;10.88;100.00;96679.16;5073874;28;20215;-57
2024/01/08 02:42:06;;;;;;;4.53;2.38;;;;;;;10.50;100.00;96620.78;5074009;28;20250;-57
2024/01/08 02:44:31;;;;;;;4.65;2.08;;;;;;;10.51;100.00;96634.53;5073681;28;20165;-57
2024/01/08 02:46:57;;;;;;;6.72;2.90;;;;;;;10.76;100.00;96675.16;5073945;28;20268;-57
2024/01/08 02:49:22;;;;;;;2.22;1.83;;;;;;;10.58;100.00;96640.75;5073299;28;20744;-57
2024/01/08 02:51:47;;;;;;;2.28;1.80;;;;;;;10.51;100.00;96630.16;5073640;28;20311;-57
2024/01/08 02:54:13;;;;;;;2.00;1.85;;;;;;;10.79;100.00;96680.06;5073582;28;20227;-57
2024/01/08 02:56:38;;;;;;;3.65;1.60;;;;;;;10.78;100.00;96692.16;5073574;28;20192;-57
2024/01/08 02:59:06;;;;;;;6.43;2.90;;;;;;;10.75;100.00;96678.72;5050704;28;20190;-58
2024/01/08 03:01:33;;;;;;;4.05;2.55;;;;;;;10.25;100.00;96597.44;5050998;28;20277;-57
2024/01/08 03:03:58;;;;;;;8.15;3.00;;;;;;;10.31;100.00;96609.78;5050841;28;20193;-56
2024/01/08 03:06:24;;;;;;;5.30;2.75;;;;;;;10.70;100.00;96688.69;5051144;28;20664;-57
2024/01/08 03:08:49;;;;;;;4.30;2.63;;;;;;;10.19;100.00;96608.38;5051101;28;20186;-57
2024/01/08 03:11:14;;;;;;;11.20;3.08;;;;;;;10.34;100.00;96637.94;5050794;28;20300;-57
2024/01/08 03:13:40;;;;;;;5.50;2.60;;;;;;;10.54;100.00;96660.91;5050936;28;20609;-57
2024/01/08 03:16:06;;;;;;;5.68;2.40;;;;;;;10.79;100.00;96705.94;5050591;28;20555;-57
2024/01/08 03:18:31;;;;;;;6.05;2.72;;;;;;;10.24;100.00;96616.50;5062792;28;20228;-58
2024/01/08 03:20:56;;;;;;;3.67;2.53;;;;;;;10.49;100.00;96659.72;5070473;28;20260;-57
2024/01/08 03:23:22;;;;;;;3.85;2.42;;;;;;;10.76;100.00;96706.22;5070538;28;20177;-57
2024/01/08 03:25:47;;;;;;;3.25;1.60;;;;;;;10.60;100.00;96691.34;5070785;28;20177;-57
2024/01/08 03:28:13;;;;;;;1.33;1.20;;;;;;;10.65;100.00;96709.00;5070305;28;20263;-57
2024/01/08 03:30:38;;;;;;;1.70;1.20;;;;;;;10.13;100.00;96614.13;5087132;28;20223;-57
2024/01/08 03:33:04;;;;;;;2.80;1.00;;;;;;;10.72;100.00;96715.22;5092801;28;20266;-57
2024/01/08 03:35:30;;;;;;;1.10;1.00;;;;;;;10.59;100.00;96694.06;5092130;28;20222;-57
2024/01/08 03:37:55;;;;;;;1.30;0.88;;;;;;;10.77;100.00;96723.34;5092911;28;20176;-57
2024/01/08 03:40:20;;;;;;;0.82;0.82;;;;;;;10.74;100.00;96714.09;5092353;28;20181;-57
2024/01/08 03:42:46;;;;;;;0.60;0.60;;;;;;;10.72;100.00;96705.69;5092850;28;20635;-57
2024/01/08 03:45:12;;;;;;;1.08;0.98;;;;;;;10.71;100.00;96708.41;5092783;28;20168;-57
2024/01/08 03:47:39;;;;;;;0.70;0.70;;;;;;;10.59;100.00;96707.00;5093029;28;20263;-57
2024/01/08 03:50:06;;;;;;;0.73;0.70;;;;;;;10.03;100.00;96627.09;5092290;28;20200;-57
2024/01/08 03:52:31;;;;;;;0.50;0.50;;;;;;;10.06;100.00;96623.41;5092602;28;20177;-57
2024/01/08 03:54:57;;;;;;;1.98;0.90;;;;;;;10.50;100.00;96710.50;5092372;28;20210;-57
2024/01/08 03:57:23;;;;;;;0.68;0.65;;;;;;;10.15;100.00;96645.81;5092510;28;20185;-57
2024/01/08 03:59:49;;;;;;;0.60;0.60;;;;;;;10.53;100.00;96725.69;5092463;28;20221;-57
2024/01/08 04:02:14;;;;;;;0.43;0.43;;;;;;;10.43;100.00;96736.09;5092193;28;20175;-58
2024/01/08 04:04:42;;;;;;;0.50;0.50;;;;;;;10.07;100.00;96701.75;5092369;28;20532;-57
2024/01/08 04:07:08;;;;;;;0.40;0.40;;;;;;;9.43;100.00;96606.16;5092315;28;20279;-57
2024/01/08 04:09:34;;;;;;;0.43;0.43;;;;;;;10.10;100.00;96749.59;5091801;28;20546;-57
2024/01/08 04:11:59;;;;;;;1.00;0.60;;;;;;;9.60;100.00;96680.28;5092303;28;20180;-57
2024/01/08 04:14:24;;;;;;;0.60;0.60;;;;;;;9.73;100.00;96704.00;5092255;28;20176;-57
2024/01/08 04:16:50;;;;;;;0.50;0.50;;;;;;;9.84;100.00;96722.75;5092211;28;20169;-57
2024/01/08 04:19:15;;;;;;;0.43;0.43;;;;;;;10.00;100.00;96750.56;5092263;28;20611;-57
2024/01/08 04:21:41;;;;;;;1.08;0.40;;;;;;;9.71;100.00;96700.78;5092121;28;20263;-57
2024/01/08 04:24:06;;;;;;;0.40;0.40;;;;;;;10.02;100.00;96766.72;5092341;28;20172;-56
2024/01/08 04:26:31;;;;;;;0.50;0.50;;;;;;;10.09;100.00;96762.66;5091758;28;20512;-57
2024/01/08 04:28:57;;;;;;;1.65;0.70;;;;;;;9.51;100.00;96688.06;5092078;28;20180;-57
2024/01/08 04:31:22;;;;;;;1.17;0.60;;;;;;;9.98;100.00;96773.94;5091855;28;20215;-57
2024/01/08 04:33:51;;;;;;;0.50;0.50;;;;;;;9.67;100.00;96727.03;5091912;28;20164;-56
2024/01/08 04:36:16;;;;;;;0.50;0.50;;;;;;;9.61;100.00;96709.50;5091917;28;20263;-57
2024/01/08 04:38:44;;;;;;;2.65;1.20;;;;;;;9.93;100.00;96763.22;5091828;28;20745;-56
2024/01/08 04:41:10;;;;;;;1.05;1.00;;;;;;;9.44;100.00;96690.38;5091754;28;20188;-56
2024/01/08 04:43:35;;;;;;;2.42;1.10;;;;;;;9.24;100.00;96655.25;5092024;28;20563;-56
2024/01/08 04:46:01;;;;;;;1.38;1.27;;;;;;;9.77;100.00;96734.59;5091642;28;20180;-57
2024/01/08 04:48:26;;;;;;;1.98;1.10;;;;;;;9.61;100.00;96725.00;5091694;28;20179;-58
2024/01/08 04:50:51;;;;;;;0.60;0.60;;;;;;;9.59;100.00;96714.81;5091690;28;20200;-57
2024/01/08 04:53:17;;;;;;;0.43;0.40;;;;;;;9.63;100.00;96722.13;5090972;28;20638;-57
2024/01/08 04:55:42;;;;;;;0.50;0.50;;;;;;;10.21;100.00;96800.28;5091639;28;20168;-58
2024/01/08 04:58:08;;;;;;;0.40;0.40;;;;;;;9.81;100.00;96735.94;5091484;28;20176;-58
2024/01/08 05:00:33;;;;;;;0.40;0.40;;;;;;;9.90;100.00;96752.34;4989244;28;20202;-57
2024/01/08 05:02:59;;;;;;;2.60;0.50;;;;;;;9.84;100.00;96748.56;4989626;28;20843;-57
2024/01/08 05:05:24;;;;;;;0.25;0.25;;;;;;;10.20;100.00;96811.56;4989569;28;20195;-57
2024/01/08 05:07:50;;;;;;;0.80;0.40;;;;;;;9.73;100.00;96729.03;4989935;28;20175;-57
2024/01/08 05:10:15;;;;;;;0.40;0.40;;;;;;;10.27;100.00;96822.97;4989417;28;20613;-58
2024/01/08 05:12:40;;;;;;;2.70;0.50;;;;;;;10.30;100.00;96831.28;4989460;28;20291;-58
2024/01/08 05:15:06;;;;;;;0.50;0.40;;;;;;;10.38;100.00;96833.94;4989457;28;20579;-58
2024/01/08 05:17:32;;;;;;;0.65;0.65;;;;;;;10.39;100.00;96832.19;4989388;28;20324;-58
2024/01/08 05:19:57;;;;;;;0.80;0.50;;;;;;;10.06;100.00;96783.59;4989834;28;20202;-58
2024/01/08 05:22:23;;;;;;;0.90;0.38;;;;;;;10.09;100.00;96798.84;4989488;28;20683;-58
2024/01/08 05:24:48;;;;;;;0.30;0.30;;;;;;;10.13;100.00;96807.91;4989475;28;20191;-57
2024/01/08 05:27:14;;;;;;;0.35;0.35;;;;;;;10.15;100.00;96821.53;4989405;28;20596;-57
2024/01/08 05:29:39;;;;;;;3.08;0.40;;;;;;;10.02;100.00;96808.06;4989408;28;20307;-57
2024/01/08 05:32:05;;;;;;;0.38;0.38;;;;;;;10.35;100.00;96854.09;5062889;28;20194;-57
2024/01/08 05:34:31;;;;;;;0.50;0.50;;;;;;;10.28;100.00;96859.00;5091251;28;20180;-57
2024/01/08 05:36:57;;;;;;;1.00;0.80;;;;;;;9.62;100.00;96757.59;5091215;28;20263;-58
2024/01/08 05:39:22;;;;;;;0.40;0.40;;;;;;;9.87;100.00;96812.84;5091063;28;20263;-58
2024/01/08 05:41:48;;;;;;;0.70;0.70;;;;;;;9.93;100.00;96845.06;5091207;28;20172;-58
2024/01/08 05:44:13;;;;;;;0.95;0.52;;;;;;;10.14;100.00;96884.47;5091154;28;20326;-58
2024/01/08 05:46:42;;;;;;;2.30;0.70;;;;;;;9.87;100.00;96854.19;5091455;28;20245;-58
2024/01/08 05:49:07;;;;;;;0.35;0.35;;;;;;;9.75;100.00;96836.41;5087233;28;20280;-57
2024/01/08 05:51:33;;;;;;;1.58;0.68;;;;;;;9.87;100.00;96855.97;5057163;28;20740;-57
2024/01/08 05:53:58;;;;;;;2.17;0.50;;;;;;;9.97;100.00;96874.81;5048209;28;20722;-58
2024/01/08 05:56:24;;;;;;;0.70;0.70;;;;;;;9.82;100.00;96847.81;5047504;28;20312;-57
2024/01/08 05:58:49;;;;;;;1.25;0.50;;;;;;;10.24;100.00;96903.38;5052065;28;20741;-58
2024/01/08 06:01:15;;;;;;;0.40;0.40;;;;;;;9.87;100.00;96824.97;5051998;28;20247;-58
2024/01/08 06:03:40;;;;;;;0.30;0.30;;;;;;;10.07;100.00;96855.81;5054579;28;20276;-58
2024/01/08 06:06:06;;;;;;;1.98;0.40;;;;;;;10.39;100.00;96905.38;5071900;28;20599;-58
2024/01/08 06:08:31;;;;;;;0.30;0.30;;;;;;;9.84;100.00;96820.91;5071795;28;20743;-58
2024/01/08 06:10:57;;;;;;;0.30;0.30;;;;;;;10.38;100.00;96929.59;5071624;28;20215;-58
2024/01/08 06:13:22;;;;;;;0.45;0.45;;;;;;;9.87;100.00;96840.47;5071786;28;20192;-58
2024/01/08 06:15:47;;;;;;;0.32;0.32;;;;;;;10.19;100.00;96911.56;5071819;28;20173;-58
2024/01/08 06:18:14;;;;;;;0.50;0.50;;;;;;;10.12;100.00;96899.31;5071432;28;20201;-58
2024/01/08 06:20:39;;;;;;;0.30;0.30;;;;;;;10.37;100.00;96935.72;5071608;28;20204;-58
2024/01/08 06:23:04;;;;;;;0.40;0.40;;;;;;;10.07;100.00;96894.56;5087791;28;20188;-57
2024/01/08 06:25:30;;;;;;;0.30;0.30;;;;;;;10.29;100.00;96932.22;5094212;28;20521;-57
2024/01/08 06:27:55;;;;;;;0.30;0.30;;;;;;;10.09;100.00;96913.34;5093928;28;20184;-57
2024/01/08 06:30:21;;;;;;;0.47;0.47;;;;;;;10.27;100.00;96952.22;5093760;28;20249;-57
2024/01/08 06:32:46;;;;;;;0.50;0.50;;;;;;;10.14;100.00;96946.50;5094105;28;20173;-57
2024/01/08 06:35:12;;;;;;;1.10;0.40;;;;;;;10.09;100.00;96953.88;5051147;28;20604;-57
2024/01/08 06:37:37;;;;;;;0.75;0.30;;;;;;;9.84;100.00;96892.38;5051212;28;20193;-57
2024/01/08 06:40:03;;;;;;;0.32;0.32;;;;;;;10.36;100.00;96977.22;5051282;28;20617;-58
2024/01/08 06:42:28;;;;;;;0.52;0.40;;;;;;;9.91;100.00;96919.28;5051231;28;20216;-57
2024/01/08 06:44:54;;;;;;;2.28;0.35;;;;;;;10.26;100.00;96968.66;5051177;28;20288;-57
2024/01/08 06:47:19;;;;;;;0.40;0.40;;;;;;;10.08;100.00;96963.38;5031005;28;20252;-58
2024/01/08 06:49:45;;;;;;;0.77;0.52;;;;;;;9.80;100.00;96922.03;5031357;28;20310;-58
2024/01/08 06:52:10;;;;;;;2.55;0.50;;;;;;;10.35;100.00;97009.22;5031169;28;20193;-58
2024/01/08 06:54:35;;;;;;;0.50;0.50;;;;;;;9.99;100.00;96969.34;5031047;28;20186;-56
2024/01/08 06:57:01;;;;;;;0.65;0.60;;;;;;;10.23;100.00;97012.88;5031041;28;20186;-58
2024/01/08 06:59:27;;;;;;;1.35;0.80;;;;;;;10.23;100.00;97013.72;5031005;28;20324;-56
2024/01/08 07:01:53;;;;;;;1.58;0.65;;;;;;;9.84;100.00;96947.47;5030898;28;20562;-56
2024/01/08 07:04:18;;;;;;;0.60;0.60;;;;;;;10.25;100.00;97005.81;5030893;28;20178;-57
2024/01/08 07:06:44;;;;;;;1.30;0.52;;;;;;;9.79;100.00;96941.06;5045238;28;20710;-56
2024/01/08 07:09:10;;;;;;;1.25;0.77;;;;;;;9.78;100.00;96955.75;5049555;28;20177;-57
2024/01/08 07:11:35;;;;;;;0.57;0.57;;;;;;;10.00;100.00;96996.00;5050587;28;20209;-56
2024/01/08 07:14:01;;;;;;;1.67;0.73;;;;;;;9.73;100.00;96957.09;5050661;28;20186;-57
2024/01/08 07:16:26;;;;;;;0.68;0.68;;;;;;;9.73;100.00;96969.22;5050562;28;20654;-56
2024/01/08 07:18:52;;;;;;;0.57;0.57;;;;;;;9.67;100.00;96957.63;5081274;28;20249;-57
2024/01/08 07:21:19;;;;;;;1.45;0.73;;;;;;;9.63;100.00;96964.84;5093324;28;20263;-56
2024/01/08 07:23:45;;;;;;;0.82;0.60;;;;;;;10.19;100.00;97064.03;5093414;28;20184;-57
2024/01/08 07:26:13;;;;;;;0.85;0.57;;;;;;;9.91;100.00;97022.63;5093051;28;20565;-56
2024/01/08 07:28:40;;;;;;;1.17;0.40;;;;;;;9.91;100.00;97018.28;5050209;28;20627;-57
2024/01/08 07:31:05;;;;;;;1.27;0.68;;;;;;;9.58;100.00;96990.22;5050227;28;20280;-57
2024/01/08 07:33:34;;;;;;;1.13;0.52;;;;;;;9.86;100.00;97040.31;5050191;28;20198;-58
2024/01/08 07:35:59;;;;;;;1.08;0.52;;;;;;;9.84;100.00;97034.44;4990763;28;20720;-57
2024/01/08 07:38:27;;;;;;;0.50;0.50;;;;;;;10.22;100.00;97102.53;4990879;28;20196;-57
2024/01/08 07:40:53;;;;;;;0.63;0.63;;;;;;;9.68;100.00;97019.47;4990771;28;20195;-57
2024/01/08 07:43:18;;;;;;;0.52;0.50;;;;;;;10.00;100.00;97069.16;4990767;28;20710;-57
2024/01/08 07:45:44;;;;;;;0.73;0.60;;;;;;;10.25;100.00;97116.94;4990772;28;20693;-57
2024/01/08 07:48:09;;;;;;;1.17;1.17;;;;;;;9.84;100.00;97062.88;4990722;28;20187;-57
2024/01/08 07:50:34;;;;;;;1.10;0.68;;;;;;;9.98;100.00;97096.88;4990523;28;20227;-58
2024/01/08 07:53:00;;;;;;;0.50;0.50;;;;;;;9.85;100.00;97074.81;4990561;28;20222;-58
2024/01/08 07:55:25;;;;;;;0.40;0.40;;;;;;;9.80;100.00;97053.78;4990606;28;20191;-58
2024/01/08 07:57:50;;;;;;;0.68;0.32;;;;;;;10.15;100.00;97104.03;4990637;28;20184;-58
2024/01/08 08:00:16;;;;;;;1.38;0.55;;;;;;;9.95;100.00;97081.66;5020168;28;20194;-58
2024/01/08 08:02:42;;;;;;;0.52;0.50;;;;;;;9.98;100.00;97091.72;5009810;28;20755;-58
2024/01/08 08:05:07;;;;;;;1.70;0.65;;;;;;;9.73;100.00;97065.56;5010243;28;20229;-57
2024/01/08 08:07:35;;;;;;;0.70;0.70;;;;;;;9.37;100.00;97063.56;5053868;28;20189;-57
2024/01/08 08:10:00;;;;;;;0.50;0.50;;;;;;;9.67;100.00;97127.28;5069378;28;20209;-58
2024/01/08 08:12:26;;;;;;;1.08;0.47;;;;;;;9.72;100.00;97143.19;5069691;28;20272;-58
2024/01/08 08:14:51;;;;;;;0.70;0.70;;;;;;;9.71;100.00;97126.88;5069468;28;20173;-58
2024/01/08 08:17:17;;;;;;;0.70;0.70;;;;;;;9.05;100.00;97021.59;5069124;28;20188;-57
2024/01/08 08:19:43;;;;;;;2.78;0.63;;;;;;;9.18;100.00;97066.06;5069119;28;20173;-57
2024/01/08 08:22:12;;;;;;;0.50;0.50;;;;;;;9.65;100.00;97153.22;5069322;28;20224;-58
2024/01/08 08:24:39;;;;;;;0.50;0.50;;;;;;;9.73;100.00;97165.47;5069296;28;20181;-58
2024/01/08 08:27:05;;;;;;;0.68;0.68;;;;;;;9.58;100.00;97154.69;5069189;28;20192;-58
2024/01/08 08:29:32;;;;;;;1.38;0.50;;;;;;;9.53;100.00;97131.00;5069095;28;20185;-58
2024/01/08 08:31:57;;;;;;;1.25;0.70;;;;;;;9.37;100.00;97115.16;5028874;28;20510;-58
2024/01/08 08:34:23;;;;;;;0.30;0.30;;;;;;;9.50;100.00;97139.00;5044625;28;20190;-58
2024/01/08 08:36:48;;;;;;;0.77;0.60;;;;;;;9.76;100.00;97184.13;5047656;28;20273;-58
2024/01/08 08:39:17;;;;;;;0.50;0.50;;;;;;;9.57;100.00;97147.06;5048402;28;20185;-58
2024/01/08 08:41:43;;;;;;;0.50;0.50;;;;;;;9.78;100.00;97202.88;5047413;28;20189;-58
2024/01/08 08:44:09;;;;;;;0.57;0.57;;;;;;;9.68;100.00;97194.25;5048330;28;20196;-58
2024/01/08 08:46:35;;;;;;;0.57;0.57;;;;;;;9.47;100.00;97172.84;5048587;28;20194;-58
2024/01/08 08:49:01;;;;;;;0.60;0.60;;;;;;;9.19;100.00;97128.78;5048947;28;20197;-58
2024/01/08 08:51:26;;;;;;;0.40;0.40;;;;;;;9.48;100.00;97182.22;5048901;28;20247;-56
2024/01/08 08:53:51;;;;;;;0.40;0.40;;;;;;;9.81;100.00;97226.69;5049020;28;20231;-56
2024/01/08 08:56:17;;;;;;;7.07;3.78;;;;;;;9.33;100.00;97143.97;5048834;28;20261;-57
2024/01/08 08:58:42;;;;;;;7.38;3.95;;;;;;;9.66;100.00;97203.09;5048890;28;20272;-56
2024/01/08 09:01:08;;;;;;;2.78;2.00;;;;;;;9.36;100.00;97170.31;5048886;28;20663;-56
2024/01/08 09:03:33;;;;;;;2.85;1.30;;;;;;;9.91;100.00;97245.63;5080701;28;20176;-56
2024/01/08 09:05:59;;;;;;;0.30;0.30;;;;;;;9.98;100.00;97241.56;5091563;28;20263;-56
2024/01/08 09:08:26;;;;;;;0.40;0.40;;;;;;;9.63;100.00;97172.38;5091476;28;20175;-57
2024/01/08 09:10:51;;;;;;;0.35;0.35;;;;;;;9.69;100.00;97188.16;5091256;28;20281;-56
2024/01/08 09:13:17;;;;;;;0.30;0.30;;;;;;;9.81;100.00;97202.63;5091353;28;20172;-56
2024/01/08 09:15:42;;;;;;;0.35;0.35;;;;;;;10.08;100.00;97259.72;5091422;28;20181;-57
2024/01/08 09:18:08;;;;;;;0.32;0.32;;;;;;;9.76;100.00;97217.69;5091365;28;20192;-56
2024/01/08 09:20:33;;;;;;;0.60;0.60;;;;;;;9.51;100.00;97189.72;5090389;28;20181;-56
2024/01/08 09:22:59;;;;;;;0.40;0.40;;;;;;;9.74;100.00;97240.22;5088701;28;20651;-56
2024/01/08 09:25:24;;;;;;;0.40;0.28;;;;;;;9.82;100.00;97237.84;5090607;28;20619;-56
2024/01/08 09:27:50;;;;;;;0.40;0.40;;;;;;;10.09;100.00;97269.16;5067067;28;20212;-58
2024/01/08 09:30:15;;;;;;;0.68;0.50;;;;;;;9.86;100.00;97246.97;5008544;28;20240;-57
2024/01/08 09:32:41;;;;;;;0.88;0.30;;;;;;;10.11;100.00;97272.41;5010551;28;20206;-57
2024/01/08 09:35:06;;;;;;;0.40;0.40;;;;;;;9.60;100.00;97232.81;5012596;28;20282;-57
2024/01/08 09:37:32;;;;;;;0.43;0.43;;;;;;;9.29;100.00;97189.03;5012604;28;20658;-57
2024/01/08 09:39:57;;;;;;;0.50;0.50;;;;;;;9.39;100.00;97195.88;5012610;28;20186;-57
2024/01/08 09:42:27;;;;;;;0.45;0.45;;;;;;;9.61;100.00;97224.13;5012511;28;20187;-57
2024/01/08 09:44:54;;;;;;;0.32;0.32;;;;;;;9.95;100.00;97285.78;5012533;28;20194;-56
2024/01/08 09:47:20;;;;;;;0.30;0.30;;;;;;;9.95;100.00;97282.38;5018387;28;20732;-57
2024/01/08 09:49:46;;;;;;;0.60;0.60;;;;;;;9.87;100.00;97277.81;5039812;28;20229;-57
2024/01/08 09:52:14;;;;;;;1.20;0.40;;;;;;;9.96;100.00;97284.00;5042485;28;20305;-57
2024/01/08 09:54:42;;;;;;;2.20;0.35;;;;;;;9.92;100.00;97282.63;5041323;28;20190;-57
2024/01/08 09:57:08;;;;;;;1.27;0.30;;;;;;;9.87;100.00;97272.66;5040698;28;20788;-57
2024/01/08 09:59:34;;;;;;;2.17;0.47;;;;;;;9.93;100.00;97272.16;5032207;28;20197;-57
2024/01/08 10:02:00;;;;;;;0.45;0.45;;;;;;;9.57;100.00;97215.03;5032090;28;20629;-57
2024/01/08 10:04:26;;;;;;;0.43;0.43;;;;;;;9.76;100.00;97256.44;5032179;28;20195;-58
2024/01/08 10:07:08;;;;;;;0.40;0.40;;;;;;;9.76;100.00;97259.03;5035588;28;20266;-57
2024/01/08 10:09:34;;;;;;;0.65;0.47;;;;;;;9.51;100.00;97215.53;5054609;28;20189;-57
2024/01/08 10:12:00;;;;;;;0.40;0.40;;;;;;;9.87;100.00;97277.81;5054289;28;20182;-57
2024/01/08 10:14:25;;;;;;;0.40;0.40;;;;;;;9.50;100.00;97213.88;5054255;28;20732;-57
2024/01/08 10:16:51;;;;;;;0.50;0.50;;;;;;;9.36;100.00;97203.88;5056506;28;20663;-57
2024/01/08 10:19:18;;;;;;;0.52;0.52;;;;;;;9.87;100.00;97287.34;5081422;28;20197;-57
2024/01/08 10:21:45;;;;;;;0.77;0.38;;;;;;;9.43;100.00;97212.75;5074057;28;20261;-57
2024/01/08 10:24:10;;;;;;;0.50;0.50;;;;;;;9.64;100.00;97254.88;5074077;28;20204;-57
2024/01/08 10:26:38;;;;;;;3.13;0.60;;;;;;;9.54;100.00;97233.34;5074036;28;20643;-57
2024/01/08 10:29:04;;;;;;;0.43;0.43;;;;;;;9.60;100.00;97255.25;5074004;28;20564;-57
2024/01/08 10:31:29;;;;;;;0.43;0.43;;;;;;;9.79;100.00;97290.56;5073573;28;20197;-57
2024/01/08 10:34:02;;;;;;;0.40;0.40;;;;;;;9.27;100.00;97202.06;5073955;28;20264;-57
2024/01/08 10:36:32;;;;;;;0.30;0.30;;;;;;;9.94;100.00;97296.22;5073720;28;20549;-59
2024/01/08 10:39:01;;;;;;;0.40;0.40;;;;;;;9.95;100.00;97298.69;5072725;28;20174;-58
2024/01/08 10:41:27;;;;;;;0.32;0.32;;;;;;;9.88;100.00;97286.41;5073480;28;20251;-57
2024/01/08 10:43:52;;;;;;;0.50;0.50;;;;;;;9.45;100.00;97223.78;5073090;28;20221;-57
2024/01/08 10:46:20;;;;;;;0.40;0.40;;;;;;;10.01;100.00;97293.00;5073788;28;20654;-57
2024/01/08 10:48:46;;;;;;;0.60;0.60;;;;;;;9.29;100.00;97220.00;5073368;28;20611;-57
2024/01/08 10:51:15;;;;;;;0.50;0.50;;;;;;;9.71;100.00;97292.16;5073532;28;20201;-57
2024/01/08 10:53:49;;;;;;;0.50;0.50;;;;;;;9.72;100.00;97301.53;5073607;28;20207;-58
2024/01/08 10:56:16;;;;;;;1.15;0.82;;;;;;;9.73;100.00;97298.84;5073273;28;20690;-58
2024/01/08 10:58:59;;;;;;;0.47;0.47;;;;;;;9.26;100.00;97215.09;5073477;28;20196;-58
2024/01/08 11:01:29;;;;;;;0.45;0.45;;;;;;;9.63;100.00;97271.31;5073444;28;20652;-57
2024/01/08 11:03:56;;;;;;;1.77;0.70;;;;;;;9.36;100.00;97226.28;5073071;28;20185;-58
2024/01/08 11:06:22;;;;;;;1.55;0.63;;;;;;;9.71;100.00;97279.25;5073346;28;20196;-58
2024/01/08 11:08:49;;;;;;;1.50;0.70;;;;;;;9.23;100.00;97208.44;5073290;28;20189;-57
2024/01/08 11:11:15;;;;;;;0.82;0.60;;;;;;;9.60;100.00;97250.91;5073305;28;20249;-57
2024/01/08 11:13:42;;;;;;;0.80;0.80;;;;;;;9.90;100.00;97302.59;5073181;28;20185;-57
2024/01/08 11:16:08;;;;;;;0.73;0.73;;;;;;;9.50;100.00;97229.38;5050466;28;20583;-57
2024/01/08 11:18:34;;;;;;;0.57;0.57;;;;;;;9.88;100.00;97281.25;5050403;28;20213;-57
2024/01/08 11:21:01;;;;;;;0.73;0.52;;;;;;;10.04;100.00;97313.44;5050551;28;20594;-57
2024/01/08 11:23:38;;;;;;;0.60;0.60;;;;;;;10.02;100.00;97306.72;5050472;28;20208;-57